createdAt,value
2023-02-09T00:02:23.421Z,94.93
2023-02-09T00:04:55.692Z,81.80
2023-02-09T00:07:27.848Z,81.10
2023-02-09T00:09:59.954Z,76.57
2023-02-09T00:12:50.952Z,82.57
2023-02-09T00:15:23.183Z,76.75
2023-02-09T00:17:55.097Z,78.63
2023-02-09T00:20:27.820Z,76.30
2023-02-09T00:22:59.900Z,73.25
2023-02-09T00:25:31.979Z,77.55
2023-02-09T00:28:04.187Z,79.00
2023-02-09T00:30:37.906Z,75.75
2023-02-09T00:33:10.220Z,77.15
2023-02-09T00:35:43.216Z,88.72
2023-02-09T00:38:15.512Z,97.80
2023-02-09T00:40:48.470Z,89.00
2023-02-09T00:43:20.505Z,99.70
2023-02-09T00:45:52.722Z,94.47
2023-02-09T00:48:24.844Z,103.13
2023-02-09T00:50:57.363Z,101.25
2023-02-09T00:53:30.598Z,102.07
2023-02-09T00:56:02.830Z,71.50
2023-02-09T00:58:35.062Z,80.65
2023-02-09T01:01:07.253Z,78.00
2023-02-09T01:03:40.480Z,73.00
2023-02-09T01:06:12.773Z,83.65
2023-02-09T01:08:45.013Z,80.65
2023-02-09T01:11:18.078Z,87.03
2023-02-09T01:13:50.350Z,78.18
2023-02-09T01:16:22.756Z,76.40
2023-02-09T01:18:56.454Z,74.47
2023-02-09T01:21:29.184Z,77.53
2023-02-09T01:24:01.296Z,77.25
2023-02-09T01:26:33.485Z,100.47
2023-02-09T01:29:05.732Z,116.85
2023-02-09T01:31:41.122Z,116.43
2023-02-09T01:34:18.617Z,105.82
2023-02-09T01:36:51.251Z,102.65
2023-02-09T01:39:23.409Z,108.78
2023-02-09T01:41:56.710Z,105.28
2023-02-09T01:44:32.052Z,116.30
2023-02-09T01:47:04.783Z,113.03
2023-02-09T01:49:36.962Z,111.55
2023-02-09T01:52:18.331Z,119.63
2023-02-09T01:55:14.527Z,116.20
2023-02-09T01:57:53.381Z,153.63
2023-02-09T02:00:27.918Z,151.80
2023-02-09T02:03:06.597Z,143.13
2023-02-09T02:05:42.886Z,119.63
2023-02-09T02:08:30.982Z,123.03
2023-02-09T02:11:04.688Z,114.13
2023-02-09T02:13:37.479Z,94.82
2023-02-09T02:16:37.655Z,96.18
2023-02-09T02:19:29.352Z,82.50
2023-02-09T02:22:15.703Z,92.22
2023-02-09T02:25:16.077Z,81.43
2023-02-09T02:28:21.743Z,85.60
2023-02-09T02:31:07.984Z,72.82
2023-02-09T02:34:11.860Z,75.85
2023-02-09T02:37:11.586Z,77.82
2023-02-09T02:39:56.076Z,68.07
2023-02-09T02:42:49.702Z,69.70
2023-02-09T02:45:25.813Z,74.82
2023-02-09T02:48:12.141Z,68.30
2023-02-09T02:51:04.984Z,63.00
2023-02-09T02:53:41.872Z,73.63
2023-02-09T02:56:25.535Z,74.35
2023-02-09T02:59:02.546Z,64.90
2023-02-09T03:01:41.948Z,67.97
2023-02-09T03:04:16.786Z,64.68
2023-02-09T03:06:49.273Z,62.35
2023-02-09T03:09:21.705Z,67.10
2023-02-09T03:12:00.945Z,69.38
2023-02-09T03:14:42.507Z,66.53
2023-02-09T03:17:46.993Z,63.72
2023-02-09T03:20:47.609Z,63.80
2023-02-09T03:23:37.650Z,70.07
2023-02-09T03:26:19.653Z,63.92
2023-02-09T03:28:55.812Z,72.50
2023-02-09T03:31:29.606Z,63.88
2023-02-09T03:34:02.174Z,70.10
2023-02-09T03:36:38.428Z,68.70
2023-02-09T03:39:10.835Z,68.03
2023-02-09T03:41:43.206Z,71.55
2023-02-09T03:44:29.880Z,70.55
2023-02-09T03:47:05.420Z,63.85
2023-02-09T03:49:40.652Z,67.57
2023-02-09T03:52:15.182Z,66.35
2023-02-09T03:54:54.348Z,69.75
2023-02-09T03:57:28.151Z,65.88
2023-02-09T04:00:01.732Z,75.72
2023-02-09T04:02:39.780Z,78.32
2023-02-09T04:05:13.040Z,77.53
2023-02-09T04:07:45.495Z,72.57
2023-02-09T04:10:17.800Z,62.65
2023-02-09T04:12:50.107Z,70.43
2023-02-09T04:15:22.487Z,70.95
2023-02-09T04:17:55.021Z,76.75
2023-02-09T04:20:27.447Z,72.50
2023-02-09T04:22:59.846Z,78.95
2023-02-09T04:25:32.119Z,69.15
2023-02-09T04:28:04.754Z,74.57
2023-02-09T04:30:37.408Z,78.55
2023-02-09T04:33:13.194Z,71.47
2023-02-09T04:35:46.001Z,87.03
2023-02-09T04:38:21.217Z,77.25
2023-02-09T04:40:55.241Z,81.10
2023-02-09T04:43:30.952Z,71.97
2023-02-09T04:46:03.508Z,79.22
2023-02-09T04:48:35.981Z,76.47
2023-02-09T04:51:08.713Z,77.55
2023-02-09T04:53:41.446Z,74.82
2023-02-09T04:56:17.182Z,70.80
2023-02-09T04:59:08.052Z,77.05
2023-02-09T05:01:40.381Z,77.03
2023-02-09T05:04:12.885Z,75.15
2023-02-09T05:06:47.497Z,77.85
2023-02-09T05:12:12.316Z,87.03
2023-02-09T05:14:44.610Z,84.03
2023-02-09T05:17:21.593Z,82.30
2023-02-09T05:19:54.053Z,75.50
2023-02-09T05:22:27.669Z,89.13
2023-02-09T05:24:59.762Z,95.25
2023-02-09T05:27:32.175Z,98.57
2023-02-09T05:30:06.514Z,86.03
2023-02-09T05:32:40.849Z,103.53
2023-02-09T05:35:13.900Z,103.32
2023-02-09T05:37:46.234Z,97.13
2023-02-09T05:43:08.408Z,83.05
2023-02-09T05:45:40.754Z,86.97
2023-02-09T05:50:53.610Z,85.30
2023-02-09T05:56:07.499Z,99.22
2023-02-09T06:07:57.437Z,100.07
2023-02-09T06:10:31.215Z,135.48
2023-02-09T06:13:03.513Z,152.13
2023-02-09T06:15:36.025Z,153.48
2023-02-09T06:18:08.671Z,127.90
2023-02-09T06:23:35.296Z,100.95
2023-02-09T06:26:09.051Z,102.82
2023-02-09T06:28:41.800Z,111.38
2023-02-09T06:31:14.907Z,125.40
2023-02-09T06:33:47.816Z,122.10
2023-02-09T06:36:20.399Z,124.97
2023-02-09T06:38:54.564Z,116.68
2023-02-09T06:41:28.693Z,121.32
2023-02-09T06:44:01.754Z,112.93
2023-02-09T06:46:35.213Z,107.57
2023-02-09T06:49:07.427Z,102.13
2023-02-09T06:51:39.807Z,94.57
2023-02-09T06:54:12.085Z,91.60
2023-02-09T06:56:44.085Z,90.57
2023-02-09T06:59:18.725Z,101.43
2023-02-09T07:01:54.886Z,106.20
2023-02-09T07:04:28.405Z,104.45
2023-02-09T07:07:00.634Z,103.03
2023-02-09T07:09:32.842Z,93.68
2023-02-09T07:12:05.072Z,95.75
2023-02-09T07:14:37.317Z,105.00
2023-02-09T07:17:09.558Z,110.03
2023-02-09T07:19:41.620Z,110.88
2023-02-09T07:22:14.131Z,100.85
2023-02-09T07:24:46.314Z,116.43
2023-02-09T07:27:19.618Z,114.20
2023-02-09T07:29:51.865Z,107.30
2023-02-09T07:32:24.284Z,105.07
2023-02-09T07:34:56.403Z,93.28
2023-02-09T07:37:28.631Z,103.78
2023-02-09T07:40:00.778Z,96.93
2023-02-09T07:42:32.918Z,94.65
2023-02-09T07:45:05.181Z,96.43
2023-02-09T07:47:38.988Z,126.53
2023-02-09T07:50:11.027Z,113.38
2023-02-09T07:52:43.062Z,127.80
2023-02-09T07:55:15.063Z,100.38
2023-02-09T07:57:47.179Z,100.53
2023-02-09T08:00:19.659Z,105.75
2023-02-09T08:02:51.921Z,98.43
2023-02-09T08:05:30.934Z,110.65
2023-02-09T08:08:02.958Z,88.53
2023-02-09T08:10:35.461Z,81.90
2023-02-09T08:13:07.527Z,80.45
2023-02-09T08:15:47.538Z,92.65
2023-02-09T08:18:32.923Z,86.20
2023-02-09T08:21:08.520Z,104.28
2023-02-09T08:23:42.767Z,100.70
2023-02-09T08:26:15.417Z,95.38
2023-02-09T08:28:47.821Z,86.45
2023-02-09T08:31:21.960Z,87.10
2023-02-09T08:33:54.546Z,99.78
2023-02-09T08:36:26.849Z,92.95
2023-02-09T08:38:58.877Z,86.65
2023-02-09T08:41:31.572Z,88.65
2023-02-09T08:44:03.652Z,89.40
2023-02-09T08:46:36.303Z,85.15
2023-02-09T08:49:08.294Z,80.22
2023-02-09T08:51:40.424Z,78.97
2023-02-09T08:54:12.313Z,93.63
2023-02-09T08:56:44.488Z,90.32
2023-02-09T08:59:17.884Z,86.85
2023-02-09T09:01:51.610Z,78.88
2023-02-09T09:04:23.585Z,87.15
2023-02-09T09:06:55.663Z,75.25
2023-02-09T09:09:27.637Z,79.88
2023-02-09T09:11:59.754Z,76.60
2023-02-09T09:14:32.247Z,78.63
2023-02-09T09:17:04.254Z,78.85
2023-02-09T09:19:36.254Z,79.72
2023-02-09T09:22:08.300Z,79.60
2023-02-09T09:24:43.422Z,92.00
2023-02-09T09:27:15.965Z,88.05
2023-02-09T09:29:47.877Z,73.25
2023-02-09T09:32:25.106Z,78.43
2023-02-09T09:34:59.293Z,82.93
2023-02-09T09:37:31.180Z,73.45
2023-02-09T09:40:03.430Z,73.78
2023-02-09T09:42:45.018Z,72.40
2023-02-09T09:45:21.860Z,73.72
2023-02-09T09:47:57.642Z,72.18
2023-02-09T09:50:39.385Z,69.07
2023-02-09T09:53:36.491Z,63.88
2023-02-09T09:56:10.128Z,70.30
2023-02-09T09:58:44.369Z,75.00
2023-02-09T10:01:19.577Z,95.50
2023-02-09T10:03:51.566Z,74.57
2023-02-09T10:06:23.640Z,67.07
2023-02-09T10:09:08.068Z,71.03
2023-02-09T10:11:49.117Z,74.35
2023-02-09T10:14:23.487Z,77.90
2023-02-09T10:16:55.719Z,67.15
2023-02-09T10:19:28.207Z,67.63
2023-02-09T10:22:00.105Z,90.38
2023-02-09T10:24:34.029Z,71.28
2023-02-09T10:27:05.987Z,71.53
2023-02-09T10:29:38.231Z,73.10
2023-02-09T10:32:22.065Z,65.05
2023-02-09T10:34:57.294Z,66.10
2023-02-09T10:37:38.930Z,68.70
2023-02-09T10:40:28.297Z,67.43
2023-02-09T10:43:27.597Z,62.83
2023-02-09T10:46:10.570Z,54.90
2023-02-09T10:48:45.341Z,59.58
2023-02-09T10:51:30.050Z,57.05
2023-02-09T10:54:08.328Z,57.95
2023-02-09T10:56:46.454Z,53.67
2023-02-09T10:59:21.738Z,41.40
2023-02-09T11:02:00.360Z,46.13
2023-02-09T11:04:41.027Z,43.20
2023-02-09T11:09:50.070Z,40.08
2023-02-09T11:12:23.238Z,42.55
2023-02-09T11:14:56.008Z,40.38
2023-02-09T11:17:37.550Z,41.38
2023-02-09T11:20:35.955Z,42.17
2023-02-09T11:23:23.074Z,40.85
2023-02-09T11:26:04.344Z,44.58
2023-02-09T11:28:59.614Z,43.10
2023-02-09T11:31:54.983Z,42.83
2023-02-09T11:34:42.124Z,36.25
2023-02-09T11:37:20.082Z,40.05
2023-02-09T11:39:58.008Z,44.75
2023-02-09T11:42:45.581Z,43.90
2023-02-09T11:45:35.600Z,43.53
2023-02-09T11:48:16.913Z,39.72
2023-02-09T11:50:51.907Z,39.65
2023-02-09T11:53:35.066Z,40.20
2023-02-09T11:56:12.014Z,39.75
2023-02-09T11:59:02.364Z,43.80
2023-02-09T12:02:00.736Z,38.17
2023-02-09T12:04:44.133Z,41.05
2023-02-09T12:07:34.874Z,42.15
2023-02-09T12:10:31.109Z,35.83
2023-02-09T12:13:03.050Z,33.38
2023-02-09T12:15:50.883Z,38.97
2023-02-09T12:18:26.663Z,40.95
2023-02-09T12:21:01.452Z,34.80
2023-02-09T12:23:36.858Z,39.80
2023-02-09T12:26:11.866Z,44.53
2023-02-09T12:29:04.801Z,41.47
2023-02-09T12:32:06.450Z,43.30
2023-02-09T12:34:53.340Z,40.17
2023-02-09T12:37:28.860Z,42.13
2023-02-09T12:40:03.863Z,42.95
2023-02-09T12:42:46.446Z,42.05
2023-02-09T12:45:39.915Z,42.15
2023-02-09T12:48:15.425Z,41.38
2023-02-09T12:50:51.688Z,44.15
2023-02-09T12:53:23.748Z,44.10
2023-02-09T12:56:09.380Z,44.35
2023-02-09T12:58:44.230Z,45.53
2023-02-09T13:01:17.445Z,45.17
2023-02-09T13:04:00.204Z,46.47
2023-02-09T13:06:45.245Z,99.18
2023-02-09T13:09:33.150Z,74.65
2023-02-09T13:12:19.863Z,49.42
2023-02-09T13:14:51.815Z,45.92
2023-02-09T13:17:38.576Z,39.33
2023-02-09T13:20:44.764Z,43.03
2023-02-09T13:23:16.820Z,45.08
2023-02-09T13:25:49.033Z,42.35
2023-02-09T13:28:22.977Z,43.80
2023-02-09T13:30:55.191Z,41.97
2023-02-09T13:33:51.265Z,40.80
2023-02-09T13:36:30.190Z,40.30
2023-02-09T13:39:02.322Z,46.95
2023-02-09T13:41:40.910Z,44.53
2023-02-09T13:44:27.468Z,42.53
2023-02-09T13:47:01.360Z,43.03
2023-02-09T13:49:33.802Z,40.92
2023-02-09T13:52:15.227Z,42.85
2023-02-09T13:54:47.503Z,40.15
2023-02-09T13:57:19.434Z,42.28
2023-02-09T13:59:51.646Z,38.00
2023-02-09T14:02:27.451Z,48.38
2023-02-09T14:05:03.028Z,43.25
2023-02-09T14:07:37.984Z,46.08
2023-02-09T14:10:17.317Z,36.00
2023-02-09T14:13:04.358Z,35.90
2023-02-09T14:15:59.998Z,49.03
2023-02-09T14:19:01.573Z,34.72
2023-02-09T14:21:40.371Z,52.40
2023-02-09T14:24:26.047Z,51.70
2023-02-09T14:27:21.000Z,55.00
2023-02-09T14:29:54.777Z,101.57
2023-02-09T14:32:38.505Z,86.30
2023-02-09T14:35:29.244Z,87.82
2023-02-09T14:40:37.429Z,47.40
2023-02-09T14:43:09.324Z,35.67
2023-02-09T14:45:48.386Z,40.40
2023-02-09T14:48:25.876Z,47.85
2023-02-09T14:51:02.766Z,42.38
2023-02-09T14:53:34.842Z,47.88
2023-02-09T14:56:13.267Z,50.75
2023-02-09T14:58:45.143Z,51.72
2023-02-09T15:01:17.344Z,53.47
2023-02-09T15:03:49.262Z,49.97
2023-02-09T15:06:21.423Z,50.22
2023-02-09T15:08:53.395Z,55.92
2023-02-09T15:11:44.042Z,48.25
2023-02-09T15:14:16.769Z,49.08
2023-02-09T15:16:48.756Z,45.38
2023-02-09T15:19:22.718Z,43.53
2023-02-09T15:22:06.564Z,45.53
2023-02-09T15:24:38.711Z,44.17
2023-02-09T15:27:41.772Z,47.13
2023-02-09T15:30:16.056Z,46.75
2023-02-09T15:32:48.469Z,52.08
2023-02-09T15:35:23.417Z,55.80
2023-02-09T15:37:57.968Z,62.22
2023-02-09T15:40:52.368Z,65.03
2023-02-09T15:43:44.565Z,76.18
2023-02-09T15:46:36.085Z,68.93
2023-02-09T15:49:08.156Z,69.32
2023-02-09T15:51:41.454Z,74.90
2023-02-09T15:54:20.568Z,70.10
2023-02-09T15:56:52.452Z,68.03
2023-02-09T15:59:24.700Z,56.78
2023-02-09T16:01:59.005Z,55.75
2023-02-09T16:04:32.023Z,49.42
2023-02-09T16:07:04.182Z,42.35
2023-02-09T16:09:36.572Z,41.80
2023-02-09T16:12:11.952Z,38.70
2023-02-09T16:14:43.946Z,42.63
2023-02-09T16:17:15.956Z,41.35
2023-02-09T16:19:49.315Z,37.17
2023-02-09T16:22:23.959Z,37.83
2023-02-09T16:24:55.897Z,37.67
2023-02-09T16:27:29.005Z,46.55
2023-02-09T16:30:01.095Z,49.65
2023-02-09T16:32:33.185Z,42.08
2023-02-09T16:35:16.208Z,39.90
2023-02-09T16:37:50.699Z,45.08
2023-02-09T16:40:31.278Z,44.55
2023-02-09T16:43:03.354Z,51.30
2023-02-09T16:45:37.422Z,50.15
2023-02-09T16:48:20.078Z,43.70
2023-02-09T16:50:54.258Z,38.22
2023-02-09T16:53:33.077Z,36.15
2023-02-09T16:56:10.449Z,36.40
2023-02-09T16:58:43.672Z,41.55
2023-02-09T17:01:22.270Z,45.20
2023-02-09T17:03:56.797Z,42.92
2023-02-09T17:06:30.269Z,46.22
2023-02-09T17:09:02.114Z,45.85
2023-02-09T17:11:34.103Z,47.03
2023-02-09T17:14:06.800Z,46.60
2023-02-09T17:16:41.961Z,46.65
2023-02-09T17:19:18.596Z,56.00
2023-02-09T17:21:50.592Z,58.40
2023-02-09T17:24:22.611Z,62.50
2023-02-09T17:26:54.489Z,62.42
2023-02-09T17:29:26.364Z,53.70
2023-02-09T17:31:58.827Z,53.05
2023-02-09T17:34:30.765Z,47.67
2023-02-09T17:37:02.684Z,53.33
2023-02-09T17:39:34.585Z,53.58
2023-02-09T17:42:06.691Z,43.97
2023-02-09T17:44:46.158Z,43.38
2023-02-09T17:47:20.370Z,46.27
2023-02-09T17:49:52.330Z,63.35
2023-02-09T17:52:24.260Z,67.30
2023-02-09T17:54:56.213Z,55.03
2023-02-09T17:57:28.329Z,55.28
2023-02-09T18:00:00.353Z,53.75
2023-02-09T18:02:32.326Z,57.97
2023-02-09T18:05:04.484Z,54.65
2023-02-09T18:07:36.428Z,48.67
2023-02-09T18:10:08.375Z,50.38
2023-02-09T18:12:40.778Z,51.65
2023-02-09T18:15:27.740Z,44.30
2023-02-09T18:17:59.855Z,49.17
2023-02-09T18:20:33.742Z,52.72
2023-02-09T18:23:06.060Z,59.47
2023-02-09T18:25:38.896Z,56.20
2023-02-09T18:28:10.997Z,50.80
2023-02-09T18:30:44.315Z,52.45
2023-02-09T18:33:16.782Z,48.78
2023-02-09T18:35:49.034Z,56.30
2023-02-09T18:38:21.149Z,46.80
2023-02-09T18:40:53.613Z,47.70
2023-02-09T18:43:25.610Z,64.88
2023-02-09T18:45:58.224Z,50.75
2023-02-09T18:48:30.229Z,55.53
2023-02-09T18:51:02.185Z,50.35
2023-02-09T18:53:35.448Z,48.05
2023-02-09T18:56:07.514Z,53.58
2023-02-09T18:58:39.510Z,65.25
2023-02-09T19:01:14.589Z,53.38
2023-02-09T19:03:48.825Z,50.85
2023-02-09T19:06:22.100Z,58.53
2023-02-09T19:08:54.437Z,58.95
2023-02-09T19:11:26.528Z,57.33
2023-02-09T19:14:16.853Z,58.60
2023-02-09T19:16:48.782Z,56.47
2023-02-09T19:19:20.889Z,57.58
2023-02-09T19:21:53.105Z,59.85
2023-02-09T19:24:25.051Z,59.17
2023-02-09T19:26:56.992Z,60.22
2023-02-09T19:29:29.394Z,69.28
2023-02-09T19:32:03.152Z,73.40
2023-02-09T19:34:37.340Z,71.25
2023-02-09T19:37:11.351Z,64.53
2023-02-09T19:39:52.601Z,68.28
2023-02-09T19:42:24.551Z,66.75
2023-02-09T19:44:56.534Z,62.67
2023-02-09T19:47:28.911Z,65.30
2023-02-09T19:50:01.001Z,64.30
2023-02-09T19:52:35.430Z,57.05
2023-02-09T19:55:07.635Z,68.72
2023-02-09T19:57:39.595Z,65.15
2023-02-09T20:00:18.845Z,71.70
2023-02-09T20:02:50.901Z,75.15
2023-02-09T20:05:22.909Z,77.32
2023-02-09T20:07:54.820Z,72.30
2023-02-09T20:10:26.864Z,70.18
2023-02-09T20:12:58.978Z,67.85
2023-02-09T20:15:30.904Z,69.97
2023-02-09T20:18:02.946Z,72.25
2023-02-09T20:20:34.949Z,79.15
2023-02-09T20:23:07.068Z,72.78
2023-02-09T20:25:43.857Z,70.57
2023-02-09T20:28:15.945Z,71.32
2023-02-09T20:30:48.464Z,71.55
2023-02-09T20:33:20.831Z,69.93
2023-02-09T20:35:53.321Z,70.32
2023-02-09T20:38:25.479Z,68.30
2023-02-09T20:40:57.470Z,71.85
2023-02-09T20:43:48.133Z,77.72
2023-02-09T20:49:15.391Z,62.55
2023-02-09T20:51:47.859Z,57.80
2023-02-09T20:54:19.809Z,64.70
2023-02-09T20:56:51.759Z,67.35
2023-02-09T20:59:24.721Z,63.80
2023-02-09T21:01:56.874Z,62.17
2023-02-09T21:04:30.409Z,62.63
2023-02-09T21:07:04.642Z,58.72
2023-02-09T21:09:36.734Z,65.18
2023-02-09T21:12:09.286Z,82.80
2023-02-09T21:14:45.244Z,66.63
2023-02-09T21:17:19.382Z,77.38
2023-02-09T21:19:51.383Z,60.72
2023-02-09T21:22:23.646Z,61.00
2023-02-09T21:24:55.564Z,68.32
2023-02-09T21:27:27.666Z,61.85
2023-02-09T21:30:00.237Z,58.05
2023-02-09T21:32:35.107Z,52.33
2023-02-09T21:35:10.527Z,55.65
2023-02-09T21:37:43.223Z,49.97
2023-02-09T21:40:16.503Z,48.28
2023-02-09T21:42:49.707Z,52.33
2023-02-09T21:45:21.705Z,58.13
2023-02-09T21:47:53.885Z,52.38
2023-02-09T21:50:26.642Z,57.63
2023-02-09T21:52:59.818Z,51.30
2023-02-09T21:55:31.828Z,59.58
2023-02-09T21:58:03.760Z,61.33
2023-02-09T22:00:35.750Z,53.63
2023-02-09T22:03:07.733Z,52.90
2023-02-09T22:05:39.672Z,54.40
2023-02-09T22:08:11.704Z,56.65
2023-02-09T22:10:43.627Z,56.63
2023-02-09T22:13:15.756Z,58.20
2023-02-09T22:15:47.794Z,57.92
2023-02-09T22:18:19.658Z,52.28
2023-02-09T22:20:52.213Z,54.20
2023-02-09T22:23:24.258Z,58.55
2023-02-09T22:26:04.688Z,61.47
2023-02-09T22:28:37.203Z,66.70
2023-02-09T22:31:12.251Z,61.45
2023-02-09T22:33:44.389Z,60.58
2023-02-09T22:36:18.672Z,55.60
2023-02-09T22:38:51.566Z,65.78
2023-02-09T22:41:23.983Z,52.03
2023-02-09T22:44:01.113Z,55.28
2023-02-09T22:46:39.081Z,51.20
2023-02-09T22:49:18.604Z,50.15
2023-02-09T22:51:50.965Z,50.58
2023-02-09T22:54:23.193Z,51.53
2023-02-09T22:56:55.159Z,51.28
2023-02-09T22:59:27.288Z,49.60
2023-02-09T23:01:59.268Z,46.72
2023-02-09T23:04:32.486Z,49.00
2023-02-09T23:07:05.382Z,46.95
2023-02-09T23:09:37.443Z,47.47
2023-02-09T23:12:09.428Z,45.85
2023-02-09T23:14:41.402Z,45.95
2023-02-09T23:17:13.700Z,48.70
2023-02-09T23:19:45.985Z,44.45
2023-02-09T23:22:18.034Z,46.80
2023-02-09T23:24:49.997Z,50.97
2023-02-09T23:27:21.965Z,43.35
2023-02-09T23:29:55.154Z,46.88
2023-02-09T23:32:27.557Z,44.72
2023-02-09T23:37:38.432Z,45.33
2023-02-09T23:40:11.440Z,40.92
2023-02-09T23:42:43.305Z,47.47
2023-02-09T23:45:15.493Z,47.67
2023-02-09T23:47:47.528Z,43.13
2023-02-09T23:50:19.614Z,47.10
2023-02-09T23:52:51.603Z,50.47
2023-02-09T23:55:23.566Z,48.58
2023-02-09T23:57:55.502Z,55.25
